VIR26Q KJFK-EGLL
Flight info
| Callsign | VIR26Q |
|---|---|
| Flight time | 2h 21m |
| Altitude | 35000 |
| Route | DEEZZ DCT CANDR J60 SAX/N0390F170 V39 VOLLU V374 CMK V3 HFD/N0488F350 DCT PUT DCT EBONY DCT UMESI/M083F370 DCT 5130N05000W 5330N04000W 5430N03000W 5430N02000W DCT NEBIN DCT OLGON/N0477F370 DCT ENJEX DCT ADHAV DCT AGCAT/N0430F230 Q63 ZIPWE DCT HAWFA L607 YORQI DCT CAWZE DCT SIRIC |
| Aircraft | A346/H-SDE2E3FGHIJ3J4J5M1RWXY/LB1D1 |
Departure
| Time | 2026-05-08 14:53 |
|---|---|
| Airport | John F. Kennedy International Airport (KJFK) |
Arrival
| Time | 2026-05-08 17:15 |
|---|---|
| Airport | London Heathrow Airport (EGLL) |
| Time | Latitude | Longitude | Altitude | Speed | Heading |
|---|---|---|---|---|---|
| 2026-05-08 14:20 | 40.64250 | -73.77952 | 29 ft | 0 kts | 11° |
| 2026-05-08 14:39 | 40.64237 | -73.77955 | 29 ft | 0 kts | 11° |
| 2026-05-08 14:39 | 40.64212 | -73.77962 | 29 ft | 0 kts | 11° |
| 2026-05-08 14:39 | 40.64192 | -73.77967 | 29 ft | 0 kts | 11° |
| 2026-05-08 14:39 | 40.64191 | -73.77967 | 29 ft | 0 kts | 11° |
| 2026-05-08 14:44 | 40.64192 | -73.77967 | 29 ft | 0 kts | 11° |
| 2026-05-08 14:44 | 40.64194 | -73.77966 | 29 ft | 1 kts | 15° |
| 2026-05-08 14:45 | 40.64206 | -73.77947 | 29 ft | 4 kts | 79° |
| 2026-05-08 14:45 | 40.64191 | -73.77908 | 29 ft | 6 kts | 142° |
| 2026-05-08 14:45 | 40.64139 | -73.77888 | 29 ft | 9 kts | 176° |
| 2026-05-08 14:45 | 40.64071 | -73.77898 | 28 ft | 11 kts | 187° |
| 2026-05-08 14:46 | 40.63993 | -73.77871 | 29 ft | 13 kts | 152° |
| 2026-05-08 14:46 | 40.63911 | -73.77809 | 29 ft | 14 kts | 147° |
| 2026-05-08 14:46 | 40.63829 | -73.77735 | 29 ft | 15 kts | 145° |
| 2026-05-08 14:46 | 40.63728 | -73.77673 | 28 ft | 16 kts | 162° |
| 2026-05-08 14:47 | 40.63635 | -73.77589 | 28 ft | 17 kts | 124° |
| 2026-05-08 14:47 | 40.63573 | -73.77456 | 30 ft | 18 kts | 120° |
| 2026-05-08 14:47 | 40.63507 | -73.77307 | 29 ft | 20 kts | 120° |
| 2026-05-08 14:47 | 40.63432 | -73.77146 | 29 ft | 22 kts | 123° |
| 2026-05-08 14:48 | 40.63362 | -73.76990 | 29 ft | 11 kts | 119° |
| 2026-05-08 14:48 | 40.63357 | -73.76979 | 29 ft | 2 kts | 119° |
| 2026-05-08 14:48 | 40.63348 | -73.76963 | 29 ft | 3 kts | 141° |
| 2026-05-08 14:48 | 40.63325 | -73.76955 | 29 ft | 5 kts | 172° |
| 2026-05-08 14:49 | 40.63306 | -73.76951 | 29 ft | 0 kts | 172° |
| 2026-05-08 14:49 | 40.63300 | -73.76951 | 29 ft | 2 kts | 172° |
| 2026-05-08 14:49 | 40.63280 | -73.76947 | 29 ft | 4 kts | 172° |
| 2026-05-08 14:50 | 40.63243 | -73.76943 | 29 ft | 7 kts | 183° |
| 2026-05-08 14:50 | 40.63192 | -73.76949 | 29 ft | 9 kts | 185° |
| 2026-05-08 14:50 | 40.63126 | -73.76965 | 29 ft | 11 kts | 196° |
| 2026-05-08 14:50 | 40.63050 | -73.77008 | 29 ft | 13 kts | 209° |
| 2026-05-08 14:51 | 40.62971 | -73.77068 | 29 ft | 14 kts | 210° |
| 2026-05-08 14:51 | 40.62888 | -73.77132 | 30 ft | 14 kts | 210° |
| 2026-05-08 14:51 | 40.62845 | -73.77165 | 30 ft | 3 kts | 210° |
| 2026-05-08 14:51 | 40.62827 | -73.77184 | 30 ft | 3 kts | 239° |
| 2026-05-08 14:52 | 40.62827 | -73.77217 | 30 ft | 5 kts | 287° |
| 2026-05-08 14:52 | 40.62995 | -73.77603 | 33 ft | 72 kts | 300° |
| 2026-05-08 14:52 | 40.63335 | -73.78358 | 30 ft | 123 kts | 301° |
| 2026-05-08 14:53 | 40.63839 | -73.79473 | 28 ft | 166 kts | 300° |
| 2026-05-08 14:53 | 40.64487 | -73.80833 | 178 ft | 186 kts | 301° |
| 2026-05-08 14:53 | 40.65151 | -73.82281 | 830 ft | 177 kts | 299° |
| 2026-05-08 14:53 | 40.65564 | -73.83655 | 1297 ft | 175 kts | 274° |
| 2026-05-08 14:54 | 40.65372 | -73.85057 | 1644 ft | 176 kts | 241° |
| 2026-05-08 14:54 | 40.64568 | -73.86135 | 1971 ft | 181 kts | 211° |
| 2026-05-08 14:54 | 40.63455 | -73.86812 | 2348 ft | 186 kts | 205° |
| 2026-05-08 14:54 | 40.62293 | -73.87470 | 2724 ft | 190 kts | 205° |
| 2026-05-08 14:55 | 40.61083 | -73.88152 | 3041 ft | 202 kts | 202° |
| 2026-05-08 14:55 | 40.59743 | -73.88506 | 3370 ft | 214 kts | 180° |
| 2026-05-08 14:55 | 40.58384 | -73.88158 | 3752 ft | 222 kts | 158° |
| 2026-05-08 14:55 | 40.57053 | -73.87263 | 4242 ft | 227 kts | 154° |
| 2026-05-08 14:56 | 40.55686 | -73.86481 | 4785 ft | 229 kts | 160° |
| 2026-05-08 14:56 | 40.54241 | -73.85833 | 5330 ft | 233 kts | 161° |
| 2026-05-08 14:56 | 40.52838 | -73.84744 | 5584 ft | 254 kts | 134° |
| 2026-05-08 14:56 | 40.51989 | -73.82728 | 5759 ft | 276 kts | 99° |
| 2026-05-08 14:57 | 40.52121 | -73.80280 | 6104 ft | 288 kts | 66° |
| 2026-05-08 14:57 | 40.53279 | -73.78248 | 6799 ft | 286 kts | 33° |
| 2026-05-08 14:57 | 40.55073 | -73.77350 | 7578 ft | 280 kts | 1° |
| 2026-05-08 14:57 | 40.56975 | -73.77566 | 8494 ft | 272 kts | 349° |
| 2026-05-08 14:58 | 40.58835 | -73.77811 | 9281 ft | 274 kts | 356° |
| 2026-05-08 14:58 | 40.60748 | -73.77755 | 9892 ft | 281 kts | 1° |
| 2026-05-08 14:58 | 40.62713 | -73.77473 | 10495 ft | 288 kts | 7° |
| 2026-05-08 14:58 | 40.64706 | -73.76963 | 11029 ft | 298 kts | 8° |
| 2026-05-08 14:59 | 40.66794 | -73.76437 | 11366 ft | 313 kts | 7° |
| 2026-05-08 14:59 | 40.71271 | -73.75310 | 12061 ft | 343 kts | 9° |
| 2026-05-08 14:59 | 40.73637 | -73.74577 | 12488 ft | 355 kts | 11° |
| 2026-05-08 15:00 | 40.76061 | -73.73799 | 12810 ft | 369 kts | 9° |
| 2026-05-08 15:00 | 40.78594 | -73.73085 | 13120 ft | 383 kts | 9° |
| 2026-05-08 15:00 | 40.81205 | -73.72338 | 13602 ft | 390 kts | 9° |
| 2026-05-08 15:00 | 40.83848 | -73.71575 | 14320 ft | 391 kts | 9° |
| 2026-05-08 15:01 | 40.86480 | -73.70782 | 15051 ft | 392 kts | 9° |
| 2026-05-08 15:01 | 40.89125 | -73.69979 | 15633 ft | 396 kts | 9° |
| 2026-05-08 15:01 | 40.93981 | -73.68506 | 16637 ft | 403 kts | 9° |
| 2026-05-08 15:01 | 41.03092 | -73.65736 | 18489 ft | 415 kts | 9° |
| 2026-05-08 15:02 | 41.09099 | -73.63903 | 19575 ft | 422 kts | 9° |
| 2026-05-08 15:02 | 41.20740 | -73.60349 | 21578 ft | 436 kts | 9° |
| 2026-05-08 15:02 | 41.30942 | -73.50803 | 23414 ft | 470 kts | 63° |
| 2026-05-08 15:02 | 41.36530 | -73.34059 | 24974 ft | 486 kts | 63° |
| 2026-05-08 15:03 | 41.42635 | -73.16692 | 26514 ft | 500 kts | 63° |
| 2026-05-08 15:03 | 41.48230 | -73.00674 | 27759 ft | 512 kts | 63° |
| 2026-05-08 15:03 | 41.53160 | -72.86497 | 28988 ft | 517 kts | 63° |
| 2026-05-08 15:03 | 41.58133 | -72.72114 | 30509 ft | 514 kts | 63° |
| 2026-05-08 15:04 | 41.63581 | -72.56377 | 31961 ft | 513 kts | 62° |
| 2026-05-08 15:04 | 41.70906 | -72.39575 | 33574 ft | 507 kts | 56° |
| 2026-05-08 15:04 | 41.77828 | -72.24246 | 34575 ft | 511 kts | 57° |
| 2026-05-08 15:04 | 41.85299 | -72.07505 | 34945 ft | 514 kts | 57° |
| 2026-05-08 15:05 | 42.00542 | -71.76853 | 34935 ft | 511 kts | 45° |
| 2026-05-08 15:05 | 42.19065 | -71.49630 | 34925 ft | 512 kts | 45° |
| 2026-05-08 15:06 | 42.32173 | -71.30087 | 34918 ft | 513 kts | 46° |
| 2026-05-08 15:06 | 42.44652 | -71.11355 | 34910 ft | 514 kts | 46° |
| 2026-05-08 15:07 | 42.59276 | -70.89250 | 34904 ft | 514 kts | 46° |
| 2026-05-08 15:07 | 42.77263 | -70.61827 | 34904 ft | 514 kts | 46° |
| 2026-05-08 15:08 | 42.92864 | -70.37834 | 34897 ft | 512 kts | 47° |
| 2026-05-08 15:08 | 43.14449 | -70.04308 | 34889 ft | 513 kts | 47° |
| 2026-05-08 15:09 | 43.32516 | -69.75946 | 34885 ft | 514 kts | 47° |
| 2026-05-08 15:09 | 43.51440 | -69.45930 | 34875 ft | 515 kts | 48° |
| 2026-05-08 15:10 | 43.69885 | -69.16374 | 34867 ft | 516 kts | 48° |
| 2026-05-08 15:10 | 43.84837 | -68.92192 | 34860 ft | 516 kts | 49° |
| 2026-05-08 15:11 | 44.02001 | -68.64175 | 34853 ft | 518 kts | 49° |
| 2026-05-08 15:11 | 44.20731 | -68.33289 | 34846 ft | 517 kts | 50° |
| 2026-05-08 15:12 | 44.38948 | -68.02924 | 34838 ft | 517 kts | 50° |
| 2026-05-08 15:12 | 44.57595 | -67.71506 | 34832 ft | 518 kts | 50° |
| 2026-05-08 15:13 | 44.75953 | -67.40231 | 34838 ft | 518 kts | 51° |
| 2026-05-08 15:13 | 44.92374 | -67.11657 | 34825 ft | 518 kts | 53° |
| 2026-05-08 15:14 | 45.09256 | -66.79200 | 34823 ft | 518 kts | 54° |
| 2026-05-08 15:14 | 45.18110 | -66.62066 | 35082 ft | 522 kts | 54° |
| 2026-05-08 15:14 | 45.26653 | -66.45436 | 36456 ft | 514 kts | 55° |
| 2026-05-08 15:15 | 45.35160 | -66.28775 | 36803 ft | 513 kts | 55° |
| 2026-05-08 15:15 | 45.43598 | -66.12157 | 36798 ft | 512 kts | 55° |
| 2026-05-08 15:15 | 45.60467 | -65.78643 | 36790 ft | 512 kts | 56° |
| 2026-05-08 15:16 | 45.77605 | -65.44174 | 36782 ft | 511 kts | 56° |
| 2026-05-08 15:16 | 45.94005 | -65.10797 | 36773 ft | 512 kts | 57° |
| 2026-05-08 15:17 | 46.09723 | -64.78431 | 36769 ft | 512 kts | 57° |
| 2026-05-08 15:17 | 46.26190 | -64.44112 | 36761 ft | 513 kts | 58° |
| 2026-05-08 15:18 | 46.41425 | -64.11995 | 36753 ft | 513 kts | 58° |
| 2026-05-08 15:18 | 46.57166 | -63.78416 | 36747 ft | 513 kts | 59° |
| 2026-05-08 15:19 | 46.72103 | -63.46173 | 36741 ft | 513 kts | 59° |
| 2026-05-08 15:19 | 46.88116 | -63.11185 | 36733 ft | 513 kts | 60° |
| 2026-05-08 15:20 | 47.03129 | -62.77974 | 36727 ft | 513 kts | 60° |
| 2026-05-08 15:20 | 47.19110 | -62.42177 | 36720 ft | 513 kts | 60° |
| 2026-05-08 15:21 | 47.35390 | -62.05224 | 36711 ft | 513 kts | 61° |
| 2026-05-08 15:21 | 47.51505 | -61.68152 | 36709 ft | 513 kts | 62° |
| 2026-05-08 15:22 | 47.65785 | -61.34871 | 36712 ft | 513 kts | 62° |
| 2026-05-08 15:22 | 47.80875 | -60.99259 | 36708 ft | 512 kts | 62° |
| 2026-05-08 15:23 | 47.95414 | -60.64500 | 36702 ft | 513 kts | 63° |
| 2026-05-08 15:23 | 48.09704 | -60.29894 | 36700 ft | 513 kts | 63° |
| 2026-05-08 15:24 | 48.24022 | -59.94768 | 36692 ft | 513 kts | 63° |
| 2026-05-08 15:24 | 48.38659 | -59.58376 | 36683 ft | 512 kts | 63° |
| 2026-05-08 15:25 | 48.50765 | -59.27899 | 36674 ft | 512 kts | 63° |
| 2026-05-08 15:25 | 48.67092 | -58.86238 | 36663 ft | 512 kts | 64° |
| 2026-05-08 15:26 | 48.80132 | -58.52492 | 36667 ft | 512 kts | 64° |
| 2026-05-08 15:26 | 48.93396 | -58.17712 | 36667 ft | 512 kts | 64° |
| 2026-05-08 15:27 | 49.05018 | -57.86859 | 36676 ft | 511 kts | 64° |
| 2026-05-08 15:27 | 49.18205 | -57.51404 | 36675 ft | 510 kts | 64° |
| 2026-05-08 15:28 | 49.31370 | -57.15520 | 36676 ft | 510 kts | 64° |
| 2026-05-08 15:28 | 49.43896 | -56.80913 | 36673 ft | 510 kts | 64° |
| 2026-05-08 15:29 | 49.56112 | -56.46712 | 36672 ft | 509 kts | 65° |
| 2026-05-08 15:29 | 49.69728 | -56.08046 | 36665 ft | 510 kts | 65° |
| 2026-05-08 15:30 | 49.83079 | -55.69559 | 36660 ft | 509 kts | 65° |
| 2026-05-08 15:30 | 49.96506 | -55.30255 | 36665 ft | 508 kts | 65° |
| 2026-05-08 15:31 | 50.09732 | -54.90940 | 36664 ft | 506 kts | 66° |
| 2026-05-08 15:31 | 50.23019 | -54.50810 | 36664 ft | 504 kts | 66° |
| 2026-05-08 15:32 | 50.35717 | -54.11851 | 36665 ft | 503 kts | 66° |
| 2026-05-08 15:32 | 50.48307 | -53.72610 | 36669 ft | 502 kts | 66° |
| 2026-05-08 15:33 | 50.59650 | -53.36716 | 36669 ft | 502 kts | 66° |
| 2026-05-08 15:33 | 50.71147 | -52.99785 | 36664 ft | 501 kts | 66° |
| 2026-05-08 15:34 | 50.82913 | -52.61382 | 36665 ft | 500 kts | 67° |
| 2026-05-08 15:34 | 50.93788 | -52.21195 | 36669 ft | 499 kts | 69° |
| 2026-05-08 15:35 | 51.03311 | -51.85223 | 36664 ft | 498 kts | 70° |
| 2026-05-08 15:35 | 51.13524 | -51.46000 | 36663 ft | 497 kts | 70° |
| 2026-05-08 15:36 | 51.21213 | -51.16025 | 36669 ft | 496 kts | 70° |
| 2026-05-08 15:36 | 51.32947 | -50.69477 | 36680 ft | 494 kts | 70° |
| 2026-05-08 15:37 | 51.42194 | -50.32106 | 36673 ft | 494 kts | 70° |
| 2026-05-08 15:37 | 51.51640 | -49.93425 | 36694 ft | 493 kts | 69° |
| 2026-05-08 15:38 | 51.61057 | -49.55935 | 36695 ft | 492 kts | 69° |
| 2026-05-08 15:38 | 51.70418 | -49.17858 | 36705 ft | 492 kts | 69° |
| 2026-05-08 15:39 | 51.79003 | -48.82345 | 36712 ft | 492 kts | 69° |
| 2026-05-08 15:39 | 51.88337 | -48.43070 | 36717 ft | 493 kts | 69° |
| 2026-05-08 15:40 | 51.96927 | -48.06284 | 36726 ft | 494 kts | 69° |
| 2026-05-08 15:40 | 52.06099 | -47.66296 | 36732 ft | 494 kts | 70° |
| 2026-05-08 15:41 | 52.13640 | -47.32836 | 36740 ft | 494 kts | 70° |
| 2026-05-08 15:41 | 52.21164 | -46.98903 | 36747 ft | 493 kts | 70° |
| 2026-05-08 15:42 | 52.29342 | -46.61381 | 36755 ft | 491 kts | 70° |
| 2026-05-08 15:42 | 52.37708 | -46.22281 | 36762 ft | 490 kts | 70° |
| 2026-05-08 15:43 | 52.45837 | -45.83545 | 36769 ft | 489 kts | 70° |
| 2026-05-08 15:43 | 52.54190 | -45.42942 | 36777 ft | 487 kts | 70° |
| 2026-05-08 15:44 | 52.61807 | -45.05179 | 36783 ft | 486 kts | 70° |
| 2026-05-08 15:44 | 52.69999 | -44.63727 | 36790 ft | 485 kts | 70° |
| 2026-05-08 15:45 | 52.77551 | -44.24708 | 36797 ft | 483 kts | 70° |
| 2026-05-08 15:45 | 52.85040 | -43.85208 | 36808 ft | 482 kts | 70° |
| 2026-05-08 15:46 | 52.91940 | -43.48049 | 36813 ft | 480 kts | 70° |
| 2026-05-08 15:46 | 52.98880 | -43.09921 | 36822 ft | 480 kts | 71° |
| 2026-05-08 15:47 | 53.05258 | -42.74152 | 36826 ft | 479 kts | 71° |
| 2026-05-08 15:47 | 53.10935 | -42.41712 | 36825 ft | 478 kts | 71° |
| 2026-05-08 15:48 | 53.19263 | -41.93018 | 36842 ft | 478 kts | 71° |
| 2026-05-08 15:49 | 53.25525 | -41.55472 | 36849 ft | 476 kts | 71° |
| 2026-05-08 15:49 | 53.31991 | -41.15836 | 36858 ft | 476 kts | 71° |
| 2026-05-08 15:50 | 53.38147 | -40.77199 | 36866 ft | 475 kts | 71° |
| 2026-05-08 15:50 | 53.44516 | -40.36248 | 36872 ft | 475 kts | 71° |
| 2026-05-08 15:51 | 53.50794 | -39.94726 | 36879 ft | 475 kts | 72° |
| 2026-05-08 15:51 | 53.56352 | -39.55703 | 36887 ft | 475 kts | 72° |
| 2026-05-08 15:52 | 53.61988 | -39.15086 | 36900 ft | 474 kts | 72° |
| 2026-05-08 15:52 | 53.66994 | -38.78058 | 36898 ft | 474 kts | 73° |
| 2026-05-08 15:53 | 53.71910 | -38.40763 | 36901 ft | 473 kts | 73° |
| 2026-05-08 15:53 | 53.76694 | -38.03501 | 36926 ft | 474 kts | 73° |
| 2026-05-08 15:54 | 53.81736 | -37.63120 | 36915 ft | 475 kts | 73° |
| 2026-05-08 15:54 | 53.86793 | -37.21378 | 36927 ft | 473 kts | 73° |
| 2026-05-08 15:55 | 53.91716 | -36.79439 | 36935 ft | 472 kts | 73° |
| 2026-05-08 15:55 | 53.98058 | -36.23326 | 36945 ft | 472 kts | 73° |
| 2026-05-08 15:56 | 54.02199 | -35.85287 | 36954 ft | 473 kts | 74° |
| 2026-05-08 15:56 | 54.06309 | -35.46314 | 36959 ft | 473 kts | 74° |
| 2026-05-08 15:57 | 54.10407 | -35.06128 | 36967 ft | 474 kts | 75° |
| 2026-05-08 15:57 | 54.14563 | -34.63853 | 36973 ft | 474 kts | 76° |
| 2026-05-08 15:58 | 54.18358 | -34.23775 | 36979 ft | 475 kts | 77° |
| 2026-05-08 15:58 | 54.22037 | -33.83434 | 36987 ft | 475 kts | 77° |
| 2026-05-08 15:59 | 54.25862 | -33.39750 | 37371 ft | 474 kts | 78° |
| 2026-05-08 15:59 | 54.27775 | -33.17170 | 38029 ft | 475 kts | 78° |
| 2026-05-08 15:59 | 54.29460 | -32.96836 | 38002 ft | 475 kts | 78° |
| 2026-05-08 16:00 | 54.32739 | -32.55967 | 38009 ft | 473 kts | 78° |
| 2026-05-08 16:00 | 54.35911 | -32.14610 | 38017 ft | 471 kts | 79° |
| 2026-05-08 16:01 | 54.39130 | -31.70542 | 38023 ft | 471 kts | 79° |
| 2026-05-08 16:01 | 54.42200 | -31.26234 | 38028 ft | 471 kts | 80° |
| 2026-05-08 16:02 | 54.45090 | -30.82135 | 38037 ft | 471 kts | 80° |
| 2026-05-08 16:02 | 54.47855 | -30.37344 | 38044 ft | 470 kts | 81° |
| 2026-05-08 16:03 | 54.50373 | -29.92702 | 38051 ft | 471 kts | 82° |
| 2026-05-08 16:03 | 54.52031 | -29.49351 | 38058 ft | 470 kts | 83° |
| 2026-05-08 16:04 | 54.53608 | -29.04667 | 38065 ft | 471 kts | 83° |
| 2026-05-08 16:04 | 54.54932 | -28.62907 | 38072 ft | 470 kts | 83° |
| 2026-05-08 16:05 | 54.56169 | -28.18988 | 38078 ft | 469 kts | 84° |
| 2026-05-08 16:05 | 54.57271 | -27.73990 | 38089 ft | 469 kts | 84° |
| 2026-05-08 16:06 | 54.58203 | -27.29054 | 38088 ft | 470 kts | 84° |
| 2026-05-08 16:06 | 54.58982 | -26.83244 | 38097 ft | 470 kts | 85° |
| 2026-05-08 16:07 | 54.59579 | -26.38223 | 38105 ft | 471 kts | 85° |
| 2026-05-08 16:07 | 54.60024 | -25.91291 | 38113 ft | 471 kts | 86° |
| 2026-05-08 16:08 | 54.60272 | -25.48229 | 38121 ft | 471 kts | 86° |
| 2026-05-08 16:08 | 54.60344 | -25.24003 | 39161 ft | 471 kts | 86° |
| 2026-05-08 16:08 | 54.60371 | -25.00496 | 39127 ft | 473 kts | 87° |
| 2026-05-08 16:09 | 54.60308 | -24.61422 | 39129 ft | 474 kts | 88° |
| 2026-05-08 16:09 | 54.60011 | -24.06584 | 39136 ft | 475 kts | 88° |
| 2026-05-08 16:10 | 54.59585 | -23.61947 | 39142 ft | 476 kts | 89° |
| 2026-05-08 16:10 | 54.59008 | -23.18170 | 39154 ft | 477 kts | 89° |
| 2026-05-08 16:11 | 54.58307 | -22.76234 | 39161 ft | 478 kts | 90° |
| 2026-05-08 16:11 | 54.57430 | -22.32837 | 39164 ft | 479 kts | 90° |
| 2026-05-08 16:12 | 54.56345 | -21.87463 | 39171 ft | 480 kts | 91° |
| 2026-05-08 16:12 | 54.55096 | -21.42300 | 39174 ft | 481 kts | 91° |
| 2026-05-08 16:13 | 54.53698 | -20.97761 | 39174 ft | 481 kts | 92° |
| 2026-05-08 16:13 | 54.52220 | -20.55635 | 39169 ft | 482 kts | 92° |
| 2026-05-08 16:14 | 54.50617 | -20.14290 | 39164 ft | 482 kts | 93° |
| 2026-05-08 16:14 | 54.48607 | -19.91750 | 39159 ft | 483 kts | 104° |
| 2026-05-08 16:14 | 54.44623 | -19.69197 | 39157 ft | 483 kts | 107° |
| 2026-05-08 16:15 | 54.36373 | -19.23478 | 39149 ft | 484 kts | 107° |
| 2026-05-08 16:15 | 54.27994 | -18.78071 | 39139 ft | 484 kts | 108° |
| 2026-05-08 16:16 | 54.20153 | -18.36554 | 39131 ft | 485 kts | 108° |
| 2026-05-08 16:16 | 54.11459 | -17.91567 | 39129 ft | 485 kts | 109° |
| 2026-05-08 16:17 | 54.04215 | -17.54867 | 39123 ft | 485 kts | 109° |
| 2026-05-08 16:17 | 53.93413 | -17.01380 | 39115 ft | 485 kts | 110° |
| 2026-05-08 16:18 | 53.84036 | -16.56099 | 39108 ft | 485 kts | 110° |
| 2026-05-08 16:18 | 53.74952 | -16.13187 | 39101 ft | 486 kts | 111° |
| 2026-05-08 16:19 | 53.67304 | -15.77753 | 39100 ft | 486 kts | 111° |
| 2026-05-08 16:19 | 53.58610 | -15.38216 | 39099 ft | 485 kts | 111° |
| 2026-05-08 16:20 | 53.50944 | -14.99219 | 39100 ft | 486 kts | 101° |
| 2026-05-08 16:20 | 53.50002 | -14.76951 | 39097 ft | 488 kts | 90° |
| 2026-05-08 16:20 | 53.50111 | -14.55461 | 39093 ft | 488 kts | 91° |
| 2026-05-08 16:21 | 53.50081 | -14.14138 | 39090 ft | 489 kts | 91° |
| 2026-05-08 16:21 | 53.49118 | -13.93912 | 39090 ft | 488 kts | 102° |
| 2026-05-08 16:21 | 53.46103 | -13.72500 | 39090 ft | 487 kts | 105° |
| 2026-05-08 16:22 | 53.41029 | -13.38154 | 39090 ft | 486 kts | 105° |
| 2026-05-08 16:22 | 53.36768 | -13.09730 | 39090 ft | 486 kts | 105° |
| 2026-05-08 16:23 | 53.31180 | -12.73192 | 39090 ft | 486 kts | 106° |
| 2026-05-08 16:23 | 53.24995 | -12.33689 | 39090 ft | 485 kts | 106° |
| 2026-05-08 16:24 | 53.18912 | -11.95733 | 39090 ft | 486 kts | 107° |
| 2026-05-08 16:24 | 53.12564 | -11.57010 | 39090 ft | 485 kts | 107° |
| 2026-05-08 16:25 | 53.06069 | -11.18271 | 39090 ft | 484 kts | 108° |
| 2026-05-08 16:25 | 52.99375 | -10.79231 | 39084 ft | 483 kts | 108° |
| 2026-05-08 16:26 | 52.92961 | -10.42616 | 39086 ft | 482 kts | 108° |
| 2026-05-08 16:26 | 52.86831 | -10.08303 | 39081 ft | 481 kts | 108° |
| 2026-05-08 16:27 | 52.80657 | -9.74384 | 39081 ft | 481 kts | 109° |
| 2026-05-08 16:27 | 52.74115 | -9.39117 | 39082 ft | 480 kts | 109° |
| 2026-05-08 16:28 | 52.68318 | -9.08405 | 39077 ft | 480 kts | 109° |
| 2026-05-08 16:28 | 52.61322 | -8.72000 | 39072 ft | 480 kts | 110° |
| 2026-05-08 16:29 | 52.53883 | -8.34031 | 39070 ft | 479 kts | 110° |
| 2026-05-08 16:29 | 52.46108 | -7.95129 | 39072 ft | 478 kts | 110° |
| 2026-05-08 16:30 | 52.38268 | -7.56670 | 39071 ft | 478 kts | 111° |
| 2026-05-08 16:30 | 52.29804 | -7.15971 | 39071 ft | 478 kts | 111° |
| 2026-05-08 16:31 | 52.22274 | -6.80441 | 39071 ft | 479 kts | 111° |
| 2026-05-08 16:31 | 52.14880 | -6.46159 | 39072 ft | 479 kts | 111° |
| 2026-05-08 16:32 | 52.06499 | -6.08025 | 39071 ft | 478 kts | 111° |
| 2026-05-08 16:32 | 51.98981 | -5.65383 | 39064 ft | 479 kts | 108° |
| 2026-05-08 16:33 | 51.91477 | -5.22347 | 39056 ft | 480 kts | 104° |
| 2026-05-08 16:33 | 51.86306 | -4.78742 | 39050 ft | 481 kts | 102° |
| 2026-05-08 16:34 | 51.83467 | -4.55152 | 39033 ft | 483 kts | 102° |
| 2026-05-08 16:34 | 51.82856 | -4.50153 | 38752 ft | 483 kts | 102° |
| 2026-05-08 16:34 | 51.82235 | -4.45098 | 38374 ft | 481 kts | 102° |
| 2026-05-08 16:35 | 51.81621 | -4.40126 | 37909 ft | 480 kts | 102° |
| 2026-05-08 16:35 | 51.80991 | -4.35046 | 37404 ft | 480 kts | 102° |
| 2026-05-08 16:35 | 51.80362 | -4.29988 | 36869 ft | 480 kts | 102° |
| 2026-05-08 16:35 | 51.79725 | -4.24855 | 36296 ft | 480 kts | 102° |
| 2026-05-08 16:36 | 51.79103 | -4.19860 | 35654 ft | 482 kts | 102° |
| 2026-05-08 16:36 | 51.78481 | -4.14894 | 35057 ft | 483 kts | 102° |
| 2026-05-08 16:36 | 51.77845 | -4.09840 | 34465 ft | 484 kts | 102° |
| 2026-05-08 16:36 | 51.77203 | -4.04763 | 33864 ft | 485 kts | 102° |
| 2026-05-08 16:37 | 51.76549 | -3.99602 | 33238 ft | 486 kts | 102° |
| 2026-05-08 16:37 | 51.75905 | -3.94528 | 32633 ft | 487 kts | 103° |
| 2026-05-08 16:37 | 51.75252 | -3.89416 | 31987 ft | 488 kts | 103° |
| 2026-05-08 16:37 | 51.74598 | -3.84296 | 31347 ft | 489 kts | 103° |
| 2026-05-08 16:38 | 51.73935 | -3.79129 | 30691 ft | 490 kts | 103° |
| 2026-05-08 16:38 | 51.73281 | -3.74058 | 30051 ft | 491 kts | 103° |
| 2026-05-08 16:38 | 51.72620 | -3.68960 | 29382 ft | 492 kts | 103° |
| 2026-05-08 16:38 | 51.71952 | -3.63819 | 28715 ft | 492 kts | 103° |
| 2026-05-08 16:39 | 51.71269 | -3.58673 | 28069 ft | 491 kts | 104° |
| 2026-05-08 16:39 | 51.70478 | -3.53667 | 27657 ft | 485 kts | 107° |
| 2026-05-08 16:39 | 51.69588 | -3.48716 | 27233 ft | 480 kts | 107° |
| 2026-05-08 16:39 | 51.68674 | -3.43723 | 26733 ft | 476 kts | 108° |
| 2026-05-08 16:40 | 51.67806 | -3.39024 | 26306 ft | 471 kts | 108° |
| 2026-05-08 16:40 | 51.66911 | -3.34194 | 25881 ft | 466 kts | 108° |
| 2026-05-08 16:40 | 51.66052 | -3.29564 | 25480 ft | 461 kts | 108° |
| 2026-05-08 16:40 | 51.65188 | -3.24914 | 25070 ft | 456 kts | 108° |
| 2026-05-08 16:41 | 51.64354 | -3.20433 | 24673 ft | 452 kts | 108° |
| 2026-05-08 16:41 | 51.63560 | -3.16180 | 24290 ft | 448 kts | 108° |
| 2026-05-08 16:41 | 51.62742 | -3.11806 | 23902 ft | 444 kts | 108° |
| 2026-05-08 16:42 | 51.61091 | -3.03009 | 23103 ft | 436 kts | 108° |
| 2026-05-08 16:42 | 51.60266 | -2.98627 | 22703 ft | 432 kts | 108° |
| 2026-05-08 16:42 | 51.59473 | -2.94427 | 22315 ft | 429 kts | 108° |
| 2026-05-08 16:42 | 51.58670 | -2.90187 | 21922 ft | 425 kts | 108° |
| 2026-05-08 16:43 | 51.57883 | -2.86040 | 21538 ft | 422 kts | 108° |
| 2026-05-08 16:43 | 51.57090 | -2.81874 | 21139 ft | 419 kts | 108° |
| 2026-05-08 16:43 | 51.56316 | -2.77816 | 20768 ft | 416 kts | 108° |
| 2026-05-08 16:43 | 51.55583 | -2.73981 | 20406 ft | 413 kts | 108° |
| 2026-05-08 16:44 | 51.54826 | -2.70016 | 20035 ft | 409 kts | 108° |
| 2026-05-08 16:44 | 51.54119 | -2.65846 | 19640 ft | 406 kts | 104° |
| 2026-05-08 16:44 | 51.53555 | -2.61503 | 19231 ft | 403 kts | 101° |
| 2026-05-08 16:44 | 51.53166 | -2.57162 | 18815 ft | 400 kts | 97° |
| 2026-05-08 16:45 | 51.52872 | -2.52794 | 18412 ft | 398 kts | 97° |
| 2026-05-08 16:45 | 51.52589 | -2.48421 | 17994 ft | 395 kts | 97° |
| 2026-05-08 16:45 | 51.52107 | -2.44184 | 17596 ft | 392 kts | 105° |
| 2026-05-08 16:45 | 51.51290 | -2.40138 | 17188 ft | 389 kts | 112° |
| 2026-05-08 16:46 | 51.50157 | -2.36282 | 16771 ft | 386 kts | 118° |
| 2026-05-08 16:46 | 51.48962 | -2.32717 | 16394 ft | 383 kts | 119° |
| 2026-05-08 16:46 | 51.47686 | -2.28989 | 15971 ft | 381 kts | 120° |
| 2026-05-08 16:46 | 51.46448 | -2.25367 | 15569 ft | 379 kts | 120° |
| 2026-05-08 16:47 | 51.45202 | -2.21706 | 15161 ft | 377 kts | 119° |
| 2026-05-08 16:47 | 51.43957 | -2.18037 | 14749 ft | 375 kts | 119° |
| 2026-05-08 16:47 | 51.42721 | -2.14386 | 14336 ft | 373 kts | 119° |
| 2026-05-08 16:47 | 51.41508 | -2.10806 | 13942 ft | 371 kts | 119° |
| 2026-05-08 16:48 | 51.40290 | -2.07212 | 13538 ft | 369 kts | 119° |
| 2026-05-08 16:48 | 51.39097 | -2.03692 | 13139 ft | 367 kts | 119° |
| 2026-05-08 16:48 | 51.38052 | -2.00083 | 12734 ft | 365 kts | 111° |
| 2026-05-08 16:48 | 51.37335 | -1.96286 | 12330 ft | 364 kts | 103° |
| 2026-05-08 16:49 | 51.36940 | -1.92426 | 11925 ft | 362 kts | 98° |
| 2026-05-08 16:49 | 51.36660 | -1.88498 | 11521 ft | 360 kts | 97° |
| 2026-05-08 16:49 | 51.36399 | -1.84585 | 11135 ft | 358 kts | 97° |
| 2026-05-08 16:49 | 51.36134 | -1.80699 | 10809 ft | 352 kts | 97° |
| 2026-05-08 16:50 | 51.35880 | -1.77094 | 10735 ft | 338 kts | 97° |
| 2026-05-08 16:50 | 51.35626 | -1.73565 | 10623 ft | 326 kts | 97° |
| 2026-05-08 16:50 | 51.35381 | -1.70220 | 10503 ft | 315 kts | 97° |
| 2026-05-08 16:50 | 51.35138 | -1.66939 | 10401 ft | 304 kts | 97° |
| 2026-05-08 16:51 | 51.34900 | -1.63736 | 10299 ft | 293 kts | 97° |
| 2026-05-08 16:51 | 51.34678 | -1.60756 | 10239 ft | 282 kts | 97° |
| 2026-05-08 16:51 | 51.34526 | -1.57843 | 10166 ft | 276 kts | 90° |
| 2026-05-08 16:51 | 51.34669 | -1.54903 | 10080 ft | 274 kts | 81° |
| 2026-05-08 16:52 | 51.35082 | -1.51984 | 9834 ft | 274 kts | 76° |
| 2026-05-08 16:52 | 51.35573 | -1.49086 | 9543 ft | 272 kts | 75° |
| 2026-05-08 16:52 | 51.36076 | -1.46174 | 9246 ft | 271 kts | 75° |
| 2026-05-08 16:52 | 51.36571 | -1.43275 | 8980 ft | 269 kts | 76° |
| 2026-05-08 16:53 | 51.37536 | -1.37519 | 8420 ft | 267 kts | 76° |
| 2026-05-08 16:53 | 51.38006 | -1.34689 | 8143 ft | 265 kts | 76° |
| 2026-05-08 16:53 | 51.38476 | -1.31844 | 7864 ft | 264 kts | 76° |
| 2026-05-08 16:54 | 51.38940 | -1.29021 | 7590 ft | 264 kts | 76° |
| 2026-05-08 16:54 | 51.39402 | -1.26212 | 7307 ft | 263 kts | 76° |
| 2026-05-08 16:54 | 51.39861 | -1.23411 | 7028 ft | 262 kts | 76° |
| 2026-05-08 16:54 | 51.40327 | -1.20557 | 6715 ft | 268 kts | 76° |
| 2026-05-08 16:55 | 51.40795 | -1.17692 | 6367 ft | 268 kts | 76° |
| 2026-05-08 16:55 | 51.41260 | -1.14842 | 6017 ft | 267 kts | 76° |
| 2026-05-08 16:55 | 51.41723 | -1.12001 | 5665 ft | 266 kts | 76° |
| 2026-05-08 16:55 | 51.42185 | -1.09158 | 5332 ft | 266 kts | 76° |
| 2026-05-08 16:56 | 51.42648 | -1.06301 | 4980 ft | 266 kts | 76° |
| 2026-05-08 16:56 | 51.43111 | -1.03440 | 4631 ft | 266 kts | 76° |
| 2026-05-08 16:56 | 51.43573 | -1.00579 | 4316 ft | 265 kts | 76° |
| 2026-05-08 16:56 | 51.44032 | -0.97733 | 3991 ft | 264 kts | 76° |
| 2026-05-08 16:57 | 51.44487 | -0.94908 | 3741 ft | 260 kts | 76° |
| 2026-05-08 16:57 | 51.44936 | -0.92118 | 3486 ft | 257 kts | 76° |
| 2026-05-08 16:57 | 51.45376 | -0.89373 | 3238 ft | 254 kts | 76° |
| 2026-05-08 16:57 | 51.45815 | -0.86628 | 3010 ft | 249 kts | 76° |
| 2026-05-08 16:58 | 51.46235 | -0.83999 | 2987 ft | 235 kts | 76° |
| 2026-05-08 16:58 | 51.46627 | -0.81549 | 2986 ft | 226 kts | 76° |
| 2026-05-08 16:58 | 51.47041 | -0.79129 | 2987 ft | 227 kts | 74° |
| 2026-05-08 16:58 | 51.47422 | -0.76741 | 2979 ft | 216 kts | 81° |
| 2026-05-08 16:59 | 51.47595 | -0.74429 | 2989 ft | 200 kts | 86° |
| 2026-05-08 16:59 | 51.47682 | -0.72276 | 2925 ft | 188 kts | 88° |
| 2026-05-08 16:59 | 51.47716 | -0.70205 | 2733 ft | 184 kts | 90° |
| 2026-05-08 16:59 | 51.47722 | -0.68174 | 2482 ft | 183 kts | 91° |
| 2026-05-08 17:00 | 51.47721 | -0.66184 | 2235 ft | 182 kts | 91° |
| 2026-05-08 17:00 | 51.47719 | -0.64184 | 2005 ft | 180 kts | 91° |
| 2026-05-08 17:00 | 51.47720 | -0.62251 | 1748 ft | 169 kts | 90° |
| 2026-05-08 17:00 | 51.47722 | -0.60478 | 1524 ft | 157 kts | 90° |
| 2026-05-08 17:01 | 51.47725 | -0.58790 | 1343 ft | 154 kts | 90° |
| 2026-05-08 17:01 | 51.47728 | -0.57102 | 1157 ft | 153 kts | 90° |
| 2026-05-08 17:01 | 51.47732 | -0.55416 | 962 ft | 153 kts | 90° |
| 2026-05-08 17:01 | 51.47736 | -0.53752 | 784 ft | 152 kts | 90° |
| 2026-05-08 17:02 | 51.47739 | -0.52033 | 575 ft | 152 kts | 90° |
| 2026-05-08 17:02 | 51.47745 | -0.50370 | 350 ft | 151 kts | 90° |
| 2026-05-08 17:02 | 51.47754 | -0.48735 | 136 ft | 150 kts | 90° |
| 2026-05-08 17:02 | 51.47747 | -0.47179 | 95 ft | 127 kts | 91° |
| 2026-05-08 17:03 | 51.47789 | -0.45504 | 158 ft | 180 kts | 88° |
| 2026-05-08 17:03 | 51.47816 | -0.43512 | 1104 ft | 178 kts | 90° |
| 2026-05-08 17:03 | 51.47819 | -0.41583 | 2108 ft | 167 kts | 86° |
| 2026-05-08 17:03 | 51.48157 | -0.39864 | 2780 ft | 168 kts | 67° |
| 2026-05-08 17:04 | 51.48906 | -0.38271 | 3033 ft | 195 kts | 39° |
| 2026-05-08 17:04 | 51.50223 | -0.37267 | 3031 ft | 225 kts | 12° |
| 2026-05-08 17:04 | 51.51803 | -0.37476 | 2950 ft | 232 kts | 337° |
| 2026-05-08 17:04 | 51.53078 | -0.39073 | 2973 ft | 233 kts | 303° |
| 2026-05-08 17:05 | 51.53638 | -0.41503 | 3004 ft | 233 kts | 279° |
| 2026-05-08 17:05 | 51.54054 | -0.43980 | 2999 ft | 233 kts | 294° |
| 2026-05-08 17:05 | 51.54799 | -0.46275 | 3004 ft | 233 kts | 300° |
| 2026-05-08 17:05 | 51.55595 | -0.48516 | 3001 ft | 233 kts | 294° |
| 2026-05-08 17:06 | 51.56103 | -0.50966 | 3002 ft | 233 kts | 283° |
| 2026-05-08 17:06 | 51.56438 | -0.53505 | 2998 ft | 232 kts | 276° |
| 2026-05-08 17:06 | 51.56566 | -0.56089 | 3001 ft | 232 kts | 272° |
| 2026-05-08 17:06 | 51.56626 | -0.58650 | 3002 ft | 232 kts | 271° |
| 2026-05-08 17:07 | 51.56671 | -0.61227 | 3002 ft | 232 kts | 271° |
| 2026-05-08 17:07 | 51.56714 | -0.63803 | 3003 ft | 232 kts | 271° |
| 2026-05-08 17:07 | 51.56756 | -0.66368 | 3002 ft | 232 kts | 270° |
| 2026-05-08 17:07 | 51.56801 | -0.68963 | 3002 ft | 232 kts | 270° |
| 2026-05-08 17:08 | 51.56845 | -0.71541 | 3001 ft | 232 kts | 270° |
| 2026-05-08 17:08 | 51.56890 | -0.74130 | 3000 ft | 232 kts | 270° |
| 2026-05-08 17:08 | 51.56934 | -0.76712 | 2998 ft | 232 kts | 270° |
| 2026-05-08 17:08 | 51.56978 | -0.79315 | 2994 ft | 232 kts | 270° |
| 2026-05-08 17:09 | 51.57022 | -0.81933 | 2993 ft | 232 kts | 269° |
| 2026-05-08 17:09 | 51.56737 | -0.84441 | 2972 ft | 229 kts | 239° |
| 2026-05-08 17:09 | 51.55666 | -0.86280 | 2983 ft | 227 kts | 206° |
| 2026-05-08 17:09 | 51.54162 | -0.86845 | 2983 ft | 225 kts | 172° |
| 2026-05-08 17:10 | 51.52731 | -0.85967 | 2985 ft | 224 kts | 139° |
| 2026-05-08 17:10 | 51.51726 | -0.84081 | 2996 ft | 224 kts | 124° |
| 2026-05-08 17:10 | 51.50892 | -0.81972 | 2989 ft | 224 kts | 121° |
| 2026-05-08 17:10 | 51.50098 | -0.79838 | 2988 ft | 224 kts | 121° |
| 2026-05-08 17:11 | 51.49307 | -0.77690 | 2990 ft | 224 kts | 120° |
| 2026-05-08 17:11 | 51.48517 | -0.75542 | 2992 ft | 223 kts | 120° |
| 2026-05-08 17:11 | 51.47888 | -0.73326 | 2968 ft | 214 kts | 105° |
| 2026-05-08 17:11 | 51.47658 | -0.71034 | 2834 ft | 207 kts | 94° |
| 2026-05-08 17:12 | 51.47657 | -0.68741 | 2580 ft | 204 kts | 89° |
| 2026-05-08 17:12 | 51.47706 | -0.66496 | 2290 ft | 200 kts | 89° |
| 2026-05-08 17:12 | 51.47728 | -0.64283 | 2000 ft | 193 kts | 90° |
| 2026-05-08 17:12 | 51.47731 | -0.62200 | 1734 ft | 185 kts | 90° |
| 2026-05-08 17:13 | 51.47731 | -0.60203 | 1504 ft | 180 kts | 90° |
| 2026-05-08 17:13 | 51.47732 | -0.58213 | 1288 ft | 176 kts | 89° |
| 2026-05-08 17:13 | 51.47735 | -0.56333 | 1051 ft | 164 kts | 90° |
| 2026-05-08 17:13 | 51.47736 | -0.54572 | 819 ft | 153 kts | 90° |
| 2026-05-08 17:14 | 51.47733 | -0.52885 | 630 ft | 151 kts | 90° |
| 2026-05-08 17:14 | 51.47742 | -0.51215 | 466 ft | 151 kts | 89° |
| 2026-05-08 17:14 | 51.47762 | -0.49545 | 280 ft | 150 kts | 90° |
| 2026-05-08 17:14 | 51.47751 | -0.47893 | 103 ft | 148 kts | 90° |
| 2026-05-08 17:15 | 51.47757 | -0.46469 | 98 ft | 103 kts | 89° |
| 2026-05-08 17:15 | 51.47760 | -0.45600 | 96 ft | 46 kts | 90° |
| 2026-05-08 17:15 | 51.47761 | -0.45289 | 97 ft | 12 kts | 90° |
| 2026-05-08 17:15 | 51.47741 | -0.45179 | 98 ft | 10 kts | 154° |
| 2026-05-08 17:16 | 51.47657 | -0.45174 | 96 ft | 14 kts | 181° |
| 2026-05-08 17:16 | 51.47642 | -0.45174 | 95 ft | 0 kts | 181° |
| 2026-05-08 17:17 | 51.47641 | -0.45174 | 95 ft | 0 kts | 181° |
| 2026-05-08 17:17 | 51.47628 | -0.45175 | 96 ft | 4 kts | 181° |
| 2026-05-08 17:17 | 51.47591 | -0.45176 | 95 ft | 7 kts | 180° |
| 2026-05-08 17:17 | 51.47537 | -0.45191 | 97 ft | 9 kts | 220° |
| 2026-05-08 17:18 | 51.47514 | -0.45303 | 96 ft | 12 kts | 261° |
| 2026-05-08 17:18 | 51.47509 | -0.45458 | 96 ft | 16 kts | 269° |
| 2026-05-08 17:18 | 51.47509 | -0.45651 | 94 ft | 19 kts | 271° |
| 2026-05-08 17:18 | 51.47518 | -0.45884 | 94 ft | 22 kts | 271° |
| 2026-05-08 17:19 | 51.47517 | -0.46150 | 94 ft | 24 kts | 269° |
| 2026-05-08 17:19 | 51.47515 | -0.46443 | 94 ft | 26 kts | 270° |
| 2026-05-08 17:19 | 51.47515 | -0.46659 | 94 ft | 6 kts | 270° |
| 2026-05-08 17:19 | 51.47502 | -0.46741 | 94 ft | 9 kts | 226° |
| 2026-05-08 17:20 | 51.47433 | -0.46750 | 95 ft | 12 kts | 168° |
| 2026-05-08 17:20 | 51.47339 | -0.46729 | 94 ft | 15 kts | 176° |
| 2026-05-08 17:20 | 51.47285 | -0.46726 | 94 ft | 1 kts | 178° |
| 2026-05-08 17:20 | 51.47268 | -0.46723 | 94 ft | 4 kts | 169° |
| 2026-05-08 17:21 | 51.47244 | -0.46690 | 94 ft | 6 kts | 111° |
| 2026-05-08 17:21 | 51.47239 | -0.46604 | 94 ft | 10 kts | 90° |
| 2026-05-08 17:21 | 51.47238 | -0.46478 | 94 ft | 13 kts | 92° |
| 2026-05-08 17:21 | 51.47180 | -0.46355 | 95 ft | 16 kts | 148° |
| 2026-05-08 17:22 | 51.47078 | -0.46248 | 99 ft | 13 kts | 145° |
| 2026-05-08 17:22 | 51.47058 | -0.46226 | 96 ft | 1 kts | 145° |
| 2026-05-08 17:22 | 51.47044 | -0.46213 | 97 ft | 3 kts | 161° |
| 2026-05-08 17:22 | 51.47014 | -0.46228 | 97 ft | 6 kts | 223° |
| 2026-05-08 17:23 | 51.46993 | -0.46272 | 96 ft | 3 kts | 234° |
| 2026-05-08 17:23 | 51.46987 | -0.46285 | 97 ft | 0 kts | 234° |
| 2026-05-08 17:23 | 51.46985 | -0.46291 | 95 ft | 0 kts | 234° |
| 2026-05-08 17:23 | 51.46983 | -0.46294 | 96 ft | 0 kts | 234° |